Fort Motte, South Carolina
Current Conditions -  °F | °C
As of 6:58 AM on Wednesday 28 Jan 2015 (Local Time) from KMMT Reporting Station
Clear Clear  
Wind Chill: 24°   Ceiling: Unl
Heat Index: 30°   Visibility: 10mi
Dew Point: 17°   Wind: 6mph
Humidity: 58%   Direction: 360°N
Pressure: 30.19"   Gusts: NA
Location:  33.7122°N, 80.8747°W
Report Text: KMMT 281158Z 36005KT 10SM CLR M01/M08 A3019 RMK AO2A SLP228 T10111085 10002 21027 52032
Loading
Personal Weather Stations






























Interactive Weather Map New forecast layout! Learn more

10-Day Weather Forecast

Advertisements
Track Severe Weather on mobile